Aviation Digital Data Service (ADDS)

Output produced by METARs form (2027 UTC 01 October 2022)
found at http://www.aviationweather.gov/metar/data/
 
KGXY 011956Z 12007KT 10SM BKN046 21/11 A3009 RMK AO2 SLP162 T02110106 $